sensor_id;sensor_type;location;lat;lon;timestamp;P1;durP1;ratioP1;P2;durP2;ratioP2
24161;SDS011;12318;51.262;7.066;2023-04-24T00:00:17;3.05;;;0.95;;
24161;SDS011;12318;51.262;7.066;2023-04-24T00:02:43;1.67;;;0.85;;
24161;SDS011;12318;51.262;7.066;2023-04-24T00:05:12;1.30;;;0.70;;
24161;SDS011;12318;51.262;7.066;2023-04-24T00:07:39;3.22;;;1.00;;
24161;SDS011;12318;51.262;7.066;2023-04-24T00:10:05;2.97;;;1.40;;
24161;SDS011;12318;51.262;7.066;2023-04-24T00:12:35;7.15;;;1.13;;
24161;SDS011;12318;51.262;7.066;2023-04-24T00:15:00;3.97;;;1.42;;
24161;SDS011;12318;51.262;7.066;2023-04-24T00:17:29;2.05;;;1.10;;
24161;SDS011;12318;51.262;7.066;2023-04-24T00:19:55;4.05;;;1.40;;
24161;SDS011;12318;51.262;7.066;2023-04-24T00:32:35;5.80;;;1.70;;
24161;SDS011;12318;51.262;7.066;2023-04-24T00:35:01;2.40;;;1.27;;
24161;SDS011;12318;51.262;7.066;2023-04-24T00:37:27;4.63;;;1.40;;
24161;SDS011;12318;51.262;7.066;2023-04-24T00:39:54;2.70;;;1.30;;
24161;SDS011;12318;51.262;7.066;2023-04-24T00:42:20;4.57;;;1.35;;
24161;SDS011;12318;51.262;7.066;2023-04-24T00:44:50;3.50;;;1.30;;
24161;SDS011;12318;51.262;7.066;2023-04-24T00:47:16;3.67;;;1.42;;
24161;SDS011;12318;51.262;7.066;2023-04-24T00:49:54;1.95;;;1.10;;
24161;SDS011;12318;51.262;7.066;2023-04-24T00:52:23;3.80;;;1.30;;
24161;SDS011;12318;51.262;7.066;2023-04-24T00:54:49;4.97;;;1.30;;
24161;SDS011;12318;51.262;7.066;2023-04-24T00:57:15;4.25;;;1.00;;
24161;SDS011;12318;51.262;7.066;2023-04-24T00:59:41;8.05;;;1.20;;
24161;SDS011;12318;51.262;7.066;2023-04-24T01:02:11;3.42;;;1.40;;
24161;SDS011;12318;51.262;7.066;2023-04-24T01:04:40;5.43;;;1.73;;
24161;SDS011;12318;51.262;7.066;2023-04-24T01:11:00;6.88;;;1.58;;
24161;SDS011;12318;51.262;7.066;2023-04-24T01:24:18;3.35;;;1.30;;
24161;SDS011;12318;51.262;7.066;2023-04-24T01:27:23;1.38;;;1.10;;
24161;SDS011;12318;51.262;7.066;2023-04-24T01:30:23;3.75;;;1.45;;
24161;SDS011;12318;51.262;7.066;2023-04-24T01:33:00;5.32;;;1.40;;
24161;SDS011;12318;51.262;7.066;2023-04-24T01:35:27;2.28;;;1.48;;
24161;SDS011;12318;51.262;7.066;2023-04-24T01:37:53;3.45;;;1.50;;
24161;SDS011;12318;51.262;7.066;2023-04-24T01:40:27;6.22;;;1.80;;
24161;SDS011;12318;51.262;7.066;2023-04-24T01:46:41;4.20;;;2.67;;
24161;SDS011;12318;51.262;7.066;2023-04-24T01:49:07;6.18;;;3.03;;
24161;SDS011;12318;51.262;7.066;2023-04-24T01:51:36;7.18;;;3.80;;
24161;SDS011;12318;51.262;7.066;2023-04-24T01:54:04;7.63;;;3.95;;
24161;SDS011;12318;51.262;7.066;2023-04-24T01:57:06;5.80;;;3.20;;
24161;SDS011;12318;51.262;7.066;2023-04-24T01:59:33;6.60;;;3.85;;
24161;SDS011;12318;51.262;7.066;2023-04-24T02:02:07;8.60;;;4.10;;
24161;SDS011;12318;51.262;7.066;2023-04-24T02:08:19;4.90;;;3.50;;
24161;SDS011;12318;51.262;7.066;2023-04-24T02:17:18;8.45;;;4.28;;
24161;SDS011;12318;51.262;7.066;2023-04-24T02:26:32;12.38;;;5.57;;
24161;SDS011;12318;51.262;7.066;2023-04-24T02:29:36;10.30;;;6.10;;
24161;SDS011;12318;51.262;7.066;2023-04-24T02:32:29;8.70;;;6.35;;
24161;SDS011;12318;51.262;7.066;2023-04-24T02:34:55;10.80;;;6.60;;
24161;SDS011;12318;51.262;7.066;2023-04-24T02:37:21;11.77;;;7.00;;
24161;SDS011;12318;51.262;7.066;2023-04-24T02:39:50;14.00;;;7.63;;
24161;SDS011;12318;51.262;7.066;2023-04-24T02:42:16;12.05;;;7.60;;
24161;SDS011;12318;51.262;7.066;2023-04-24T02:44:42;13.43;;;8.00;;
24161;SDS011;12318;51.262;7.066;2023-04-24T02:47:08;14.10;;;7.70;;
24161;SDS011;12318;51.262;7.066;2023-04-24T02:49:34;12.40;;;8.88;;
24161;SDS011;12318;51.262;7.066;2023-04-24T02:51:59;14.73;;;8.20;;
24161;SDS011;12318;51.262;7.066;2023-04-24T02:54:28;11.88;;;8.55;;
24161;SDS011;12318;51.262;7.066;2023-04-24T02:56:54;17.10;;;9.00;;
24161;SDS011;12318;51.262;7.066;2023-04-24T02:59:20;13.68;;;8.63;;
24161;SDS011;12318;51.262;7.066;2023-04-24T03:01:45;15.15;;;7.65;;
24161;SDS011;12318;51.262;7.066;2023-04-24T03:04:11;12.45;;;8.80;;
24161;SDS011;12318;51.262;7.066;2023-04-24T03:06:37;11.77;;;8.57;;
24161;SDS011;12318;51.262;7.066;2023-04-24T03:09:06;13.60;;;8.50;;
24161;SDS011;12318;51.262;7.066;2023-04-24T03:11:32;13.55;;;8.80;;
24161;SDS011;12318;51.262;7.066;2023-04-24T03:13:58;15.93;;;9.55;;
24161;SDS011;12318;51.262;7.066;2023-04-24T03:16:25;13.13;;;8.32;;
24161;SDS011;12318;51.262;7.066;2023-04-24T03:19:03;12.90;;;9.00;;
24161;SDS011;12318;51.262;7.066;2023-04-24T03:21:34;12.80;;;9.27;;
24161;SDS011;12318;51.262;7.066;2023-04-24T03:24:14;18.95;;;9.50;;
24161;SDS011;12318;51.262;7.066;2023-04-24T03:30:13;17.40;;;9.55;;
24161;SDS011;12318;51.262;7.066;2023-04-24T03:46:35;15.63;;;10.02;;
24161;SDS011;12318;51.262;7.066;2023-04-24T03:49:01;16.10;;;10.40;;
24161;SDS011;12318;51.262;7.066;2023-04-24T03:51:27;15.90;;;10.48;;
24161;SDS011;12318;51.262;7.066;2023-04-24T03:53:53;16.50;;;9.93;;
24161;SDS011;12318;51.262;7.066;2023-04-24T03:56:19;27.65;;;9.98;;
24161;SDS011;12318;51.262;7.066;2023-04-24T03:58:50;16.05;;;10.27;;
24161;SDS011;12318;51.262;7.066;2023-04-24T04:01:17;12.77;;;9.15;;
24161;SDS011;12318;51.262;7.066;2023-04-24T04:03:46;13.77;;;8.98;;
24161;SDS011;12318;51.262;7.066;2023-04-24T04:06:14;14.13;;;8.68;;
24161;SDS011;12318;51.262;7.066;2023-04-24T04:08:46;14.30;;;9.07;;
24161;SDS011;12318;51.262;7.066;2023-04-24T04:11:12;15.32;;;9.48;;
24161;SDS011;12318;51.262;7.066;2023-04-24T04:13:38;18.92;;;10.70;;
24161;SDS011;12318;51.262;7.066;2023-04-24T04:16:04;19.80;;;10.40;;
24161;SDS011;12318;51.262;7.066;2023-04-24T04:18:30;18.17;;;10.65;;
24161;SDS011;12318;51.262;7.066;2023-04-24T04:20:56;22.20;;;11.43;;
24161;SDS011;12318;51.262;7.066;2023-04-24T04:23:22;19.05;;;11.02;;
24161;SDS011;12318;51.262;7.066;2023-04-24T04:25:48;17.30;;;10.98;;
24161;SDS011;12318;51.262;7.066;2023-04-24T04:28:16;20.02;;;10.98;;
24161;SDS011;12318;51.262;7.066;2023-04-24T04:30:45;22.65;;;11.70;;
24161;SDS011;12318;51.262;7.066;2023-04-24T04:33:12;21.35;;;11.57;;
24161;SDS011;12318;51.262;7.066;2023-04-24T04:35:37;18.17;;;10.93;;
24161;SDS011;12318;51.262;7.066;2023-04-24T04:38:03;22.60;;;11.77;;
24161;SDS011;12318;51.262;7.066;2023-04-24T04:40:29;18.33;;;11.25;;
24161;SDS011;12318;51.262;7.066;2023-04-24T04:42:55;14.93;;;10.68;;
24161;SDS011;12318;51.262;7.066;2023-04-24T04:45:21;19.98;;;11.43;;
24161;SDS011;12318;51.262;7.066;2023-04-24T04:47:47;18.17;;;10.95;;
24161;SDS011;12318;51.262;7.066;2023-04-24T04:50:13;21.58;;;10.65;;
24161;SDS011;12318;51.262;7.066;2023-04-24T04:52:52;19.90;;;10.77;;
24161;SDS011;12318;51.262;7.066;2023-04-24T04:55:20;16.85;;;10.63;;
24161;SDS011;12318;51.262;7.066;2023-04-24T04:57:46;16.27;;;9.48;;
24161;SDS011;12318;51.262;7.066;2023-04-24T05:00:20;18.98;;;9.35;;
24161;SDS011;12318;51.262;7.066;2023-04-24T05:02:52;19.42;;;9.95;;
24161;SDS011;12318;51.262;7.066;2023-04-24T05:05:18;18.27;;;9.65;;
24161;SDS011;12318;51.262;7.066;2023-04-24T05:07:44;18.77;;;10.23;;
24161;SDS011;12318;51.262;7.066;2023-04-24T05:10:10;13.02;;;9.02;;
24161;SDS011;12318;51.262;7.066;2023-04-24T05:12:38;17.00;;;9.10;;
24161;SDS011;12318;51.262;7.066;2023-04-24T05:15:09;20.42;;;10.55;;
24161;SDS011;12318;51.262;7.066;2023-04-24T05:17:35;20.50;;;10.70;;
24161;SDS011;12318;51.262;7.066;2023-04-24T05:20:02;18.17;;;10.80;;
24161;SDS011;12318;51.262;7.066;2023-04-24T05:22:31;18.77;;;11.32;;
24161;SDS011;12318;51.262;7.066;2023-04-24T05:24:57;19.33;;;12.55;;
24161;SDS011;12318;51.262;7.066;2023-04-24T05:27:33;20.75;;;12.02;;
24161;SDS011;12318;51.262;7.066;2023-04-24T05:29:58;21.13;;;11.98;;
24161;SDS011;12318;51.262;7.066;2023-04-24T05:32:27;19.10;;;11.73;;
24161;SDS011;12318;51.262;7.066;2023-04-24T05:34:56;17.73;;;10.77;;
24161;SDS011;12318;51.262;7.066;2023-04-24T05:37:24;18.00;;;10.77;;
24161;SDS011;12318;51.262;7.066;2023-04-24T05:39:50;20.85;;;11.20;;
24161;SDS011;12318;51.262;7.066;2023-04-24T05:42:19;22.98;;;10.00;;
24161;SDS011;12318;51.262;7.066;2023-04-24T05:44:45;17.63;;;9.40;;
24161;SDS011;12318;51.262;7.066;2023-04-24T05:47:11;12.60;;;8.82;;
24161;SDS011;12318;51.262;7.066;2023-04-24T05:49:42;12.63;;;7.03;;
24161;SDS011;12318;51.262;7.066;2023-04-24T05:52:10;17.85;;;9.23;;
24161;SDS011;12318;51.262;7.066;2023-04-24T05:54:45;15.45;;;9.82;;
24161;SDS011;12318;51.262;7.066;2023-04-24T05:57:14;17.02;;;10.32;;
24161;SDS011;12318;51.262;7.066;2023-04-24T05:59:42;14.60;;;10.98;;
24161;SDS011;12318;51.262;7.066;2023-04-24T06:02:08;19.67;;;11.63;;
24161;SDS011;12318;51.262;7.066;2023-04-24T06:05:31;16.60;;;11.55;;
24161;SDS011;12318;51.262;7.066;2023-04-24T06:07:57;13.23;;;9.63;;
24161;SDS011;12318;51.262;7.066;2023-04-24T06:10:25;17.95;;;11.90;;
24161;SDS011;12318;51.262;7.066;2023-04-24T06:12:54;16.65;;;10.88;;
24161;SDS011;12318;51.262;7.066;2023-04-24T06:15:33;16.85;;;11.90;;
24161;SDS011;12318;51.262;7.066;2023-04-24T06:17:59;16.80;;;11.30;;
24161;SDS011;12318;51.262;7.066;2023-04-24T06:20:28;17.85;;;11.52;;
24161;SDS011;12318;51.262;7.066;2023-04-24T06:23:01;19.95;;;12.63;;
24161;SDS011;12318;51.262;7.066;2023-04-24T06:27:58;17.08;;;11.38;;
24161;SDS011;12318;51.262;7.066;2023-04-24T06:30:40;19.42;;;12.07;;
24161;SDS011;12318;51.262;7.066;2023-04-24T06:33:06;17.67;;;12.35;;
24161;SDS011;12318;51.262;7.066;2023-04-24T06:35:32;17.38;;;11.65;;
24161;SDS011;12318;51.262;7.066;2023-04-24T06:37:58;18.63;;;12.27;;
24161;SDS011;12318;51.262;7.066;2023-04-24T06:43:40;18.40;;;12.85;;
24161;SDS011;12318;51.262;7.066;2023-04-24T06:46:08;18.92;;;12.10;;
24161;SDS011;12318;51.262;7.066;2023-04-24T06:48:49;23.13;;;11.55;;
24161;SDS011;12318;51.262;7.066;2023-04-24T06:51:15;21.70;;;12.27;;
24161;SDS011;12318;51.262;7.066;2023-04-24T06:53:43;21.52;;;12.27;;
24161;SDS011;12318;51.262;7.066;2023-04-24T06:56:11;16.85;;;10.50;;
24161;SDS011;12318;51.262;7.066;2023-04-24T06:58:40;17.27;;;10.85;;
24161;SDS011;12318;51.262;7.066;2023-04-24T07:04:11;15.43;;;8.85;;
24161;SDS011;12318;51.262;7.066;2023-04-24T07:06:38;16.98;;;10.27;;
24161;SDS011;12318;51.262;7.066;2023-04-24T07:09:04;12.93;;;8.25;;
24161;SDS011;12318;51.262;7.066;2023-04-24T07:11:39;13.45;;;9.13;;
24161;SDS011;12318;51.262;7.066;2023-04-24T07:14:06;15.77;;;9.65;;
24161;SDS011;12318;51.262;7.066;2023-04-24T07:16:44;15.77;;;8.93;;
24161;SDS011;12318;51.262;7.066;2023-04-24T07:19:23;13.98;;;8.98;;
24161;SDS011;12318;51.262;7.066;2023-04-24T07:21:50;14.13;;;8.90;;
24161;SDS011;12318;51.262;7.066;2023-04-24T07:24:15;19.05;;;10.63;;
24161;SDS011;12318;51.262;7.066;2023-04-24T07:26:41;13.43;;;9.23;;
24161;SDS011;12318;51.262;7.066;2023-04-24T07:29:07;18.92;;;10.32;;
24161;SDS011;12318;51.262;7.066;2023-04-24T07:31:39;10.15;;;6.43;;
24161;SDS011;12318;51.262;7.066;2023-04-24T07:34:10;11.00;;;8.02;;
24161;SDS011;12318;51.262;7.066;2023-04-24T07:36:39;10.18;;;7.82;;
24161;SDS011;12318;51.262;7.066;2023-04-24T07:39:06;13.60;;;7.78;;
24161;SDS011;12318;51.262;7.066;2023-04-24T07:41:33;18.85;;;8.40;;
24161;SDS011;12318;51.262;7.066;2023-04-24T07:44:01;8.65;;;5.40;;
24161;SDS011;12318;51.262;7.066;2023-04-24T07:46:27;7.75;;;5.80;;
24161;SDS011;12318;51.262;7.066;2023-04-24T07:48:54;10.65;;;5.07;;
24161;SDS011;12318;51.262;7.066;2023-04-24T07:51:49;9.45;;;6.40;;
24161;SDS011;12318;51.262;7.066;2023-04-24T07:57:14;3.95;;;2.80;;
24161;SDS011;12318;51.262;7.066;2023-04-24T07:59:41;4.72;;;2.90;;
24161;SDS011;12318;51.262;7.066;2023-04-24T08:02:08;4.97;;;2.35;;
24161;SDS011;12318;51.262;7.066;2023-04-24T08:04:36;2.72;;;1.70;;
24161;SDS011;12318;51.262;7.066;2023-04-24T08:07:02;1.73;;;1.20;;
24161;SDS011;12318;51.262;7.066;2023-04-24T08:09:28;2.15;;;0.95;;
24161;SDS011;12318;51.262;7.066;2023-04-24T08:11:57;2.10;;;0.65;;
24161;SDS011;12318;51.262;7.066;2023-04-24T08:14:27;1.02;;;0.65;;
24161;SDS011;12318;51.262;7.066;2023-04-24T08:16:54;1.65;;;0.80;;
24161;SDS011;12318;51.262;7.066;2023-04-24T08:19:21;3.80;;;1.27;;
24161;SDS011;12318;51.262;7.066;2023-04-24T08:21:50;4.75;;;1.70;;
24161;SDS011;12318;51.262;7.066;2023-04-24T08:24:18;2.92;;;1.40;;
24161;SDS011;12318;51.262;7.066;2023-04-24T08:26:45;4.05;;;1.00;;
24161;SDS011;12318;51.262;7.066;2023-04-24T08:29:15;2.72;;;0.90;;
24161;SDS011;12318;51.262;7.066;2023-04-24T08:31:41;1.00;;;0.70;;
24161;SDS011;12318;51.262;7.066;2023-04-24T08:34:10;1.85;;;0.80;;
24161;SDS011;12318;51.262;7.066;2023-04-24T08:36:41;1.80;;;0.85;;
24161;SDS011;12318;51.262;7.066;2023-04-24T08:39:07;2.47;;;0.95;;
24161;SDS011;12318;51.262;7.066;2023-04-24T08:41:33;2.88;;;1.33;;
24161;SDS011;12318;51.262;7.066;2023-04-24T08:44:01;4.82;;;1.20;;
24161;SDS011;12318;51.262;7.066;2023-04-24T08:46:27;3.92;;;1.23;;
24161;SDS011;12318;51.262;7.066;2023-04-24T08:48:58;2.78;;;1.23;;
24161;SDS011;12318;51.262;7.066;2023-04-24T08:51:27;2.03;;;1.10;;
24161;SDS011;12318;51.262;7.066;2023-04-24T08:56:39;3.28;;;1.08;;
24161;SDS011;12318;51.262;7.066;2023-04-24T08:59:07;1.25;;;1.00;;
24161;SDS011;12318;51.262;7.066;2023-04-24T09:01:34;1.15;;;1.00;;
24161;SDS011;12318;51.262;7.066;2023-04-24T09:04:02;2.22;;;1.15;;
24161;SDS011;12318;51.262;7.066;2023-04-24T09:06:31;1.88;;;1.20;;
24161;SDS011;12318;51.262;7.066;2023-04-24T09:09:01;1.58;;;1.38;;
24161;SDS011;12318;51.262;7.066;2023-04-24T09:11:39;2.70;;;1.70;;
24161;SDS011;12318;51.262;7.066;2023-04-24T09:14:05;3.53;;;2.10;;
24161;SDS011;12318;51.262;7.066;2023-04-24T09:16:33;8.18;;;2.20;;
24161;SDS011;12318;51.262;7.066;2023-04-24T09:18:58;3.10;;;2.40;;
24161;SDS011;12318;51.262;7.066;2023-04-24T09:21:25;4.63;;;2.47;;
24161;SDS011;12318;51.262;7.066;2023-04-24T09:24:03;4.50;;;2.95;;
24161;SDS011;12318;51.262;7.066;2023-04-24T09:26:35;7.30;;;3.58;;
24161;SDS011;12318;51.262;7.066;2023-04-24T09:29:02;6.88;;;4.07;;
24161;SDS011;12318;51.262;7.066;2023-04-24T09:31:29;10.10;;;4.68;;
24161;SDS011;12318;51.262;7.066;2023-04-24T09:34:02;10.05;;;4.80;;
24161;SDS011;12318;51.262;7.066;2023-04-24T09:36:36;11.10;;;5.47;;
24161;SDS011;12318;51.262;7.066;2023-04-24T09:39:03;12.80;;;6.97;;
24161;SDS011;12318;51.262;7.066;2023-04-24T09:41:43;12.23;;;7.25;;
24161;SDS011;12318;51.262;7.066;2023-04-24T09:44:15;14.32;;;7.90;;
24161;SDS011;12318;51.262;7.066;2023-04-24T09:46:45;16.05;;;7.90;;
24161;SDS011;12318;51.262;7.066;2023-04-24T09:49:26;17.53;;;8.07;;
24161;SDS011;12318;51.262;7.066;2023-04-24T09:52:06;16.15;;;8.10;;
24161;SDS011;12318;51.262;7.066;2023-04-24T09:54:36;18.38;;;7.93;;
24161;SDS011;12318;51.262;7.066;2023-04-24T09:57:03;15.60;;;6.43;;
24161;SDS011;12318;51.262;7.066;2023-04-24T09:59:32;13.82;;;7.43;;
24161;SDS011;12318;51.262;7.066;2023-04-24T10:02:18;15.93;;;8.60;;
24161;SDS011;12318;51.262;7.066;2023-04-24T10:04:58;17.02;;;9.90;;
24161;SDS011;12318;51.262;7.066;2023-04-24T10:10:16;14.30;;;9.23;;
24161;SDS011;12318;51.262;7.066;2023-04-24T10:12:42;20.63;;;9.57;;
24161;SDS011;12318;51.262;7.066;2023-04-24T10:15:11;21.63;;;9.80;;
24161;SDS011;12318;51.262;7.066;2023-04-24T10:17:38;19.40;;;9.93;;
24161;SDS011;12318;51.262;7.066;2023-04-24T10:20:05;23.20;;;11.85;;
24161;SDS011;12318;51.262;7.066;2023-04-24T10:22:32;25.38;;;11.55;;
24161;SDS011;12318;51.262;7.066;2023-04-24T10:24:57;17.92;;;9.60;;
24161;SDS011;12318;51.262;7.066;2023-04-24T10:27:24;18.65;;;9.27;;
24161;SDS011;12318;51.262;7.066;2023-04-24T10:29:52;20.30;;;9.40;;
24161;SDS011;12318;51.262;7.066;2023-04-24T10:32:18;17.95;;;9.20;;
24161;SDS011;12318;51.262;7.066;2023-04-24T10:34:44;16.98;;;9.63;;
24161;SDS011;12318;51.262;7.066;2023-04-24T10:37:10;21.52;;;11.05;;
24161;SDS011;12318;51.262;7.066;2023-04-24T10:39:38;18.88;;;9.07;;
24161;SDS011;12318;51.262;7.066;2023-04-24T10:42:15;20.88;;;9.02;;
24161;SDS011;12318;51.262;7.066;2023-04-24T10:44:41;25.35;;;8.98;;
24161;SDS011;12318;51.262;7.066;2023-04-24T10:47:07;22.70;;;9.10;;
24161;SDS011;12318;51.262;7.066;2023-04-24T10:49:39;19.88;;;8.50;;
24161;SDS011;12318;51.262;7.066;2023-04-24T10:52:05;21.88;;;7.32;;
24161;SDS011;12318;51.262;7.066;2023-04-24T10:59:48;19.60;;;8.05;;
24161;SDS011;12318;51.262;7.066;2023-04-24T11:02:16;16.27;;;7.57;;
24161;SDS011;12318;51.262;7.066;2023-04-24T11:04:42;20.33;;;7.35;;
24161;SDS011;12318;51.262;7.066;2023-04-24T11:07:10;19.13;;;6.43;;
24161;SDS011;12318;51.262;7.066;2023-04-24T11:09:38;18.52;;;7.32;;
24161;SDS011;12318;51.262;7.066;2023-04-24T11:12:11;21.13;;;6.82;;
24161;SDS011;12318;51.262;7.066;2023-04-24T11:17:31;23.23;;;7.10;;
24161;SDS011;12318;51.262;7.066;2023-04-24T11:20:03;19.25;;;8.18;;
24161;SDS011;12318;51.262;7.066;2023-04-24T11:22:35;21.77;;;8.20;;
24161;SDS011;12318;51.262;7.066;2023-04-24T11:25:04;22.77;;;9.48;;
24161;SDS011;12318;51.262;7.066;2023-04-24T11:27:41;24.58;;;8.82;;
24161;SDS011;12318;51.262;7.066;2023-04-24T11:30:08;28.58;;;10.68;;
24161;SDS011;12318;51.262;7.066;2023-04-24T11:35:06;25.20;;;9.90;;
24161;SDS011;12318;51.262;7.066;2023-04-24T11:37:36;26.60;;;10.95;;
24161;SDS011;12318;51.262;7.066;2023-04-24T11:40:06;22.70;;;9.60;;
24161;SDS011;12318;51.262;7.066;2023-04-24T11:42:38;24.48;;;8.00;;
24161;SDS011;12318;51.262;7.066;2023-04-24T11:45:11;22.63;;;8.63;;
24161;SDS011;12318;51.262;7.066;2023-04-24T11:47:46;23.13;;;7.70;;
24161;SDS011;12318;51.262;7.066;2023-04-24T11:50:13;19.65;;;7.00;;
24161;SDS011;12318;51.262;7.066;2023-04-24T11:52:44;19.45;;;7.15;;
24161;SDS011;12318;51.262;7.066;2023-04-24T11:57:43;19.35;;;7.10;;
24161;SDS011;12318;51.262;7.066;2023-04-24T12:00:17;17.38;;;5.93;;
24161;SDS011;12318;51.262;7.066;2023-04-24T12:02:44;23.67;;;6.82;;
24161;SDS011;12318;51.262;7.066;2023-04-24T12:05:24;11.65;;;5.18;;
24161;SDS011;12318;51.262;7.066;2023-04-24T12:08:10;21.17;;;5.30;;
24161;SDS011;12318;51.262;7.066;2023-04-24T12:10:57;15.82;;;5.45;;
24161;SDS011;12318;51.262;7.066;2023-04-24T12:13:28;13.77;;;4.68;;
24161;SDS011;12318;51.262;7.066;2023-04-24T12:15:54;20.27;;;5.82;;
24161;SDS011;12318;51.262;7.066;2023-04-24T12:18:24;18.40;;;5.60;;
24161;SDS011;12318;51.262;7.066;2023-04-24T12:21:21;17.40;;;4.78;;
24161;SDS011;12318;51.262;7.066;2023-04-24T12:23:48;17.25;;;4.45;;
24161;SDS011;12318;51.262;7.066;2023-04-24T12:26:17;14.63;;;4.47;;
24161;SDS011;12318;51.262;7.066;2023-04-24T12:28:51;16.20;;;4.00;;
24161;SDS011;12318;51.262;7.066;2023-04-24T12:31:22;14.38;;;4.38;;
24161;SDS011;12318;51.262;7.066;2023-04-24T12:34:04;15.68;;;4.15;;
24161;SDS011;12318;51.262;7.066;2023-04-24T12:36:49;15.27;;;4.07;;
24161;SDS011;12318;51.262;7.066;2023-04-24T12:39:24;11.07;;;3.70;;
24161;SDS011;12318;51.262;7.066;2023-04-24T12:41:57;12.57;;;3.75;;
24161;SDS011;12318;51.262;7.066;2023-04-24T12:44:31;8.93;;;3.38;;
24161;SDS011;12318;51.262;7.066;2023-04-24T12:47:01;14.02;;;3.80;;
24161;SDS011;12318;51.262;7.066;2023-04-24T12:49:36;11.68;;;3.33;;
24161;SDS011;12318;51.262;7.066;2023-04-24T12:52:07;12.32;;;3.05;;
24161;SDS011;12318;51.262;7.066;2023-04-24T12:56:59;11.27;;;3.08;;
24161;SDS011;12318;51.262;7.066;2023-04-24T12:59:31;7.22;;;2.15;;
24161;SDS011;12318;51.262;7.066;2023-04-24T13:02:06;9.73;;;2.00;;
24161;SDS011;12318;51.262;7.066;2023-04-24T13:04:34;8.50;;;2.20;;
24161;SDS011;12318;51.262;7.066;2023-04-24T13:07:13;6.75;;;1.73;;
24161;SDS011;12318;51.262;7.066;2023-04-24T13:09:48;7.10;;;2.22;;
24161;SDS011;12318;51.262;7.066;2023-04-24T13:12:18;8.55;;;2.22;;
24161;SDS011;12318;51.262;7.066;2023-04-24T13:14:45;8.20;;;2.10;;
24161;SDS011;12318;51.262;7.066;2023-04-24T13:17:11;7.13;;;1.90;;
24161;SDS011;12318;51.262;7.066;2023-04-24T13:22:11;6.07;;;1.95;;
24161;SDS011;12318;51.262;7.066;2023-04-24T13:24:43;7.30;;;1.85;;
24161;SDS011;12318;51.262;7.066;2023-04-24T13:27:17;7.22;;;1.70;;
24161;SDS011;12318;51.262;7.066;2023-04-24T13:29:43;5.32;;;1.52;;
24161;SDS011;12318;51.262;7.066;2023-04-24T13:32:09;8.00;;;1.73;;
24161;SDS011;12318;51.262;7.066;2023-04-24T13:34:35;4.32;;;1.38;;
24161;SDS011;12318;51.262;7.066;2023-04-24T13:37:01;4.45;;;1.58;;
24161;SDS011;12318;51.262;7.066;2023-04-24T13:39:28;5.70;;;1.35;;
24161;SDS011;12318;51.262;7.066;2023-04-24T13:41:55;7.18;;;1.30;;
24161;SDS011;12318;51.262;7.066;2023-04-24T13:44:21;5.07;;;1.40;;
24161;SDS011;12318;51.262;7.066;2023-04-24T13:46:48;3.35;;;1.40;;
24161;SDS011;12318;51.262;7.066;2023-04-24T13:49:16;4.70;;;1.40;;
24161;SDS011;12318;51.262;7.066;2023-04-24T13:51:43;6.00;;;1.30;;
24161;SDS011;12318;51.262;7.066;2023-04-24T13:54:09;3.33;;;1.45;;
24161;SDS011;12318;51.262;7.066;2023-04-24T13:56:35;6.20;;;1.20;;
24161;SDS011;12318;51.262;7.066;2023-04-24T13:59:01;7.43;;;1.42;;
24161;SDS011;12318;51.262;7.066;2023-04-24T14:01:27;4.63;;;1.40;;
24161;SDS011;12318;51.262;7.066;2023-04-24T14:03:53;3.13;;;1.15;;
24161;SDS011;12318;51.262;7.066;2023-04-24T14:06:20;4.85;;;1.30;;
24161;SDS011;12318;51.262;7.066;2023-04-24T14:08:46;3.55;;;1.10;;
24161;SDS011;12318;51.262;7.066;2023-04-24T14:11:13;5.10;;;1.30;;
24161;SDS011;12318;51.262;7.066;2023-04-24T14:13:40;4.03;;;1.20;;
24161;SDS011;12318;51.262;7.066;2023-04-24T14:16:07;4.38;;;1.30;;
24161;SDS011;12318;51.262;7.066;2023-04-24T14:18:33;5.72;;;1.20;;
24161;SDS011;12318;51.262;7.066;2023-04-24T14:20:59;4.95;;;1.30;;
24161;SDS011;12318;51.262;7.066;2023-04-24T14:23:26;11.82;;;1.50;;
24161;SDS011;12318;51.262;7.066;2023-04-24T14:25:52;4.90;;;1.15;;
24161;SDS011;12318;51.262;7.066;2023-04-24T14:28:21;7.68;;;1.60;;
24161;SDS011;12318;51.262;7.066;2023-04-24T14:30:47;4.13;;;1.77;;
24161;SDS011;12318;51.262;7.066;2023-04-24T14:33:13;3.58;;;1.30;;
24161;SDS011;12318;51.262;7.066;2023-04-24T14:35:39;7.55;;;1.33;;
24161;SDS011;12318;51.262;7.066;2023-04-24T14:38:06;4.07;;;1.10;;
24161;SDS011;12318;51.262;7.066;2023-04-24T14:40:32;4.30;;;1.20;;
24161;SDS011;12318;51.262;7.066;2023-04-24T14:42:58;4.32;;;1.13;;
24161;SDS011;12318;51.262;7.066;2023-04-24T14:45:25;7.65;;;1.25;;
24161;SDS011;12318;51.262;7.066;2023-04-24T14:47:51;4.07;;;1.00;;
24161;SDS011;12318;51.262;7.066;2023-04-24T14:50:17;4.88;;;1.13;;
24161;SDS011;12318;51.262;7.066;2023-04-24T14:52:48;8.35;;;1.58;;
24161;SDS011;12318;51.262;7.066;2023-04-24T14:55:14;3.90;;;1.20;;
24161;SDS011;12318;51.262;7.066;2023-04-24T14:57:43;5.82;;;1.42;;
24161;SDS011;12318;51.262;7.066;2023-04-24T15:00:09;5.57;;;1.38;;
24161;SDS011;12318;51.262;7.066;2023-04-24T15:02:36;4.03;;;1.25;;
24161;SDS011;12318;51.262;7.066;2023-04-24T15:05:06;4.68;;;1.27;;
24161;SDS011;12318;51.262;7.066;2023-04-24T15:07:33;6.03;;;1.42;;
24161;SDS011;12318;51.262;7.066;2023-04-24T15:10:00;2.97;;;1.10;;
24161;SDS011;12318;51.262;7.066;2023-04-24T15:12:26;4.22;;;1.33;;
24161;SDS011;12318;51.262;7.066;2023-04-24T15:14:57;3.83;;;1.20;;
24161;SDS011;12318;51.262;7.066;2023-04-24T15:17:23;6.20;;;1.58;;
24161;SDS011;12318;51.262;7.066;2023-04-24T15:19:48;6.57;;;1.60;;
24161;SDS011;12318;51.262;7.066;2023-04-24T15:22:14;5.28;;;1.38;;
24161;SDS011;12318;51.262;7.066;2023-04-24T15:24:40;3.63;;;1.27;;
24161;SDS011;12318;51.262;7.066;2023-04-24T15:27:08;4.28;;;1.25;;
24161;SDS011;12318;51.262;7.066;2023-04-24T15:29:35;4.65;;;1.25;;
24161;SDS011;12318;51.262;7.066;2023-04-24T15:32:01;7.82;;;1.55;;
24161;SDS011;12318;51.262;7.066;2023-04-24T15:34:27;8.60;;;1.45;;
24161;SDS011;12318;51.262;7.066;2023-04-24T15:36:52;5.20;;;1.52;;
24161;SDS011;12318;51.262;7.066;2023-04-24T15:39:21;2.67;;;1.20;;
24161;SDS011;12318;51.262;7.066;2023-04-24T15:41:49;3.70;;;1.33;;
24161;SDS011;12318;51.262;7.066;2023-04-24T15:44:15;4.60;;;1.50;;
24161;SDS011;12318;51.262;7.066;2023-04-24T15:46:41;4.47;;;1.55;;
24161;SDS011;12318;51.262;7.066;2023-04-24T15:49:06;4.18;;;1.55;;
24161;SDS011;12318;51.262;7.066;2023-04-24T15:51:33;5.13;;;1.45;;
24161;SDS011;12318;51.262;7.066;2023-04-24T15:53:59;3.13;;;1.30;;
24161;SDS011;12318;51.262;7.066;2023-04-24T15:56:25;5.20;;;1.52;;
24161;SDS011;12318;51.262;7.066;2023-04-24T15:58:51;5.18;;;1.98;;
24161;SDS011;12318;51.262;7.066;2023-04-24T16:01:17;5.43;;;1.60;;
24161;SDS011;12318;51.262;7.066;2023-04-24T16:03:43;4.18;;;1.70;;
24161;SDS011;12318;51.262;7.066;2023-04-24T16:06:08;5.07;;;1.42;;
24161;SDS011;12318;51.262;7.066;2023-04-24T16:08:34;2.20;;;1.20;;
24161;SDS011;12318;51.262;7.066;2023-04-24T16:11:00;2.60;;;1.50;;
24161;SDS011;12318;51.262;7.066;2023-04-24T16:13:26;4.25;;;1.60;;
24161;SDS011;12318;51.262;7.066;2023-04-24T16:15:53;5.03;;;1.85;;
24161;SDS011;12318;51.262;7.066;2023-04-24T16:18:19;2.92;;;1.70;;
24161;SDS011;12318;51.262;7.066;2023-04-24T16:20:45;4.47;;;1.83;;
24161;SDS011;12318;51.262;7.066;2023-04-24T16:23:11;3.92;;;1.67;;
24161;SDS011;12318;51.262;7.066;2023-04-24T16:25:38;5.18;;;1.88;;
24161;SDS011;12318;51.262;7.066;2023-04-24T16:28:04;4.20;;;1.80;;